createdAt,value
2019-06-08T00:00:04.285Z,52.52
2019-06-08T00:01:04.253Z,52.29
2019-06-08T00:02:04.242Z,52.49
2019-06-08T00:03:04.237Z,52.52
2019-06-08T00:04:04.227Z,52.39
2019-06-08T00:05:04.234Z,52.59
2019-06-08T00:06:04.218Z,52.39
2019-06-08T00:07:04.187Z,52.59
2019-06-08T00:08:04.176Z,52.39
2019-06-08T00:09:04.167Z,52.39
2019-06-08T00:10:04.177Z,52.39
2019-06-08T00:11:04.143Z,52.19
2019-06-08T00:12:04.135Z,52.39
2019-06-08T00:13:04.121Z,52.49
2019-06-08T00:14:04.110Z,52.39
2019-06-08T00:15:04.123Z,52.29
2019-06-08T00:16:04.094Z,52.39
2019-06-08T00:17:04.079Z,52.72
2019-06-08T00:18:04.069Z,52.39
2019-06-08T00:19:04.055Z,52.39
2019-06-08T00:20:04.068Z,52.59
2019-06-08T00:21:04.032Z,52.39
2019-06-08T00:22:04.023Z,52.59
2019-06-08T00:23:04.016Z,52.22
2019-06-08T00:24:04.008Z,52.29
2019-06-08T00:25:04.014Z,52.49
2019-06-08T00:26:04.002Z,52.39
2019-06-08T00:27:03.969Z,52.39
2019-06-08T00:28:03.958Z,52.59
2019-06-08T00:29:03.949Z,52.42
2019-06-08T00:30:03.937Z,52.32
2019-06-08T00:31:03.947Z,52.59
2019-06-08T00:32:03.911Z,52.12
2019-06-08T00:33:03.905Z,52.39
2019-06-08T00:34:03.897Z,52.00
2019-06-08T00:35:03.881Z,52.49
2019-06-08T00:36:03.890Z,52.39
2019-06-08T00:37:03.858Z,52.09
2019-06-08T00:38:03.851Z,52.59
2019-06-08T00:39:03.837Z,52.12
2019-06-08T00:40:03.822Z,52.39
2019-06-08T00:41:03.837Z,52.49
2019-06-08T00:42:03.803Z,52.39
2019-06-08T00:43:03.792Z,52.39
2019-06-08T00:44:03.790Z,52.32
2019-06-08T00:45:03.783Z,52.22
2019-06-08T00:46:03.781Z,52.09
2019-06-08T00:47:03.748Z,52.39
2019-06-08T00:48:03.737Z,52.52
2019-06-08T00:49:03.729Z,52.59
2019-06-08T00:50:03.714Z,52.39
2019-06-08T00:51:03.722Z,52.49
2019-06-08T00:52:03.711Z,52.00
2019-06-08T00:53:03.694Z,52.42
2019-06-08T00:54:03.673Z,52.39
2019-06-08T00:55:03.657Z,52.42
2019-06-08T00:56:03.674Z,52.02
2019-06-08T00:57:03.638Z,52.19
2019-06-08T00:58:03.630Z,52.12
2019-06-08T00:59:03.621Z,52.02
2019-06-08T01:00:10.193Z,52.12
2019-06-08T01:01:04.627Z,52.32
2019-06-08T01:02:03.580Z,52.02
2019-06-08T01:03:03.568Z,52.39
2019-06-08T01:04:03.561Z,52.02
2019-06-08T01:05:03.550Z,52.12
2019-06-08T01:06:03.539Z,52.09
2019-06-08T01:07:03.552Z,52.22
2019-06-08T01:08:03.828Z,52.42
2019-06-08T01:09:03.503Z,52.39
2019-06-08T01:10:03.497Z,52.22
2019-06-08T01:11:03.542Z,52.19
2019-06-08T01:12:03.494Z,52.12
2019-06-08T01:13:03.462Z,52.02
2019-06-08T01:14:03.448Z,52.02
2019-06-08T01:15:03.505Z,52.12
2019-06-08T01:16:03.429Z,52.02
2019-06-08T01:17:03.442Z,52.02
2019-06-08T01:18:04.294Z,52.12
2019-06-08T01:19:03.395Z,52.02
2019-06-08T01:20:03.386Z,51.92
2019-06-08T01:21:03.375Z,52.02
2019-06-08T01:22:03.385Z,52.12
2019-06-08T01:23:03.348Z,52.12
2019-06-08T01:24:03.338Z,52.02
2019-06-08T01:25:03.393Z,52.12
2019-06-08T01:26:03.315Z,52.02
2019-06-08T01:27:03.329Z,51.92
2019-06-08T01:28:03.297Z,52.12
2019-06-08T01:29:03.283Z,51.92
2019-06-08T01:30:03.326Z,52.02
2019-06-08T01:31:03.273Z,51.92
2019-06-08T01:32:03.319Z,52.02
2019-06-08T01:33:03.384Z,51.92
2019-06-08T01:34:03.231Z,51.92
2019-06-08T01:35:03.224Z,51.92
2019-06-08T01:36:03.210Z,51.92
2019-06-08T01:37:03.231Z,52.02
2019-06-08T01:38:03.196Z,52.32
2019-06-08T01:39:03.174Z,51.92
2019-06-08T01:40:03.165Z,51.92
2019-06-08T01:41:03.156Z,52.12
2019-06-08T01:42:03.164Z,52.12
2019-06-08T01:43:03.148Z,51.92
2019-06-08T01:44:03.121Z,52.02
2019-06-08T01:45:03.635Z,52.12
2019-06-08T01:46:03.095Z,51.92
2019-06-08T01:47:03.088Z,51.92
2019-06-08T01:48:18.830Z,51.92
2019-06-08T01:49:04.064Z,52.12
2019-06-08T01:50:03.051Z,51.92
2019-06-08T01:51:03.331Z,52.12
2019-06-08T01:52:03.034Z,52.12
2019-06-08T01:53:03.058Z,51.92
2019-06-08T01:54:03.010Z,52.32
2019-06-08T01:55:02.997Z,51.92
2019-06-08T01:56:02.987Z,52.12
2019-06-08T01:57:02.985Z,51.92
2019-06-08T01:58:02.985Z,52.12
2019-06-08T01:59:02.961Z,51.92
2019-06-08T02:00:28.722Z,51.92
2019-06-08T02:01:03.931Z,51.92
2019-06-08T02:02:02.943Z,51.92
2019-06-08T02:03:02.931Z,52.22
2019-06-08T02:04:02.896Z,52.02
2019-06-08T02:05:02.885Z,52.02
2019-06-08T02:06:02.948Z,52.02
2019-06-08T02:07:02.884Z,52.12
2019-06-08T02:08:02.856Z,52.02
2019-06-08T02:09:02.863Z,52.12
2019-06-08T02:10:02.833Z,52.12
2019-06-08T02:11:02.833Z,52.22
2019-06-08T02:12:02.807Z,51.92
2019-06-08T02:13:02.799Z,52.12
2019-06-08T02:14:02.808Z,52.12
2019-06-08T02:15:02.786Z,52.12
2019-06-08T02:16:02.769Z,52.12
2019-06-08T02:17:02.755Z,51.82
2019-06-08T02:18:02.744Z,52.02
2019-06-08T02:19:02.754Z,52.02
2019-06-08T02:20:02.719Z,52.12
2019-06-08T02:21:02.713Z,52.02
2019-06-08T02:22:02.697Z,52.12
2019-06-08T02:23:02.686Z,52.12
2019-06-08T02:24:02.696Z,51.82
2019-06-08T02:25:02.670Z,51.92
2019-06-08T02:26:02.658Z,52.02
2019-06-08T02:27:02.642Z,51.92
2019-06-08T02:28:02.728Z,52.22
2019-06-08T02:29:02.642Z,52.12
2019-06-08T02:30:02.631Z,52.12
2019-06-08T02:31:02.604Z,52.12
2019-06-08T02:32:02.595Z,52.12
2019-06-08T02:33:02.581Z,52.02
2019-06-08T02:34:02.607Z,52.22
2019-06-08T02:35:02.560Z,52.12
2019-06-08T02:36:02.549Z,52.32
2019-06-08T02:37:02.537Z,52.12
2019-06-08T02:38:02.531Z,52.12
2019-06-08T02:39:02.535Z,52.22
2019-06-08T02:40:02.503Z,52.22
2019-06-08T02:41:02.493Z,52.12
2019-06-08T02:42:02.482Z,52.32
2019-06-08T02:43:02.490Z,52.12
2019-06-08T02:44:02.461Z,52.22
2019-06-08T02:45:02.470Z,52.12
2019-06-08T02:46:02.451Z,52.14
2019-06-08T02:47:02.427Z,52.02
2019-06-08T02:48:02.413Z,52.12
2019-06-08T02:49:04.431Z,52.12
2019-06-08T02:50:02.418Z,52.22
2019-06-08T02:51:02.382Z,52.12
2019-06-08T02:52:02.369Z,52.22
2019-06-08T02:53:02.366Z,52.02
2019-06-08T02:54:02.350Z,52.02
2019-06-08T02:55:02.370Z,52.22
2019-06-08T02:56:02.340Z,52.22
2019-06-08T02:57:02.318Z,52.55
2019-06-08T02:58:02.303Z,52.02
2019-06-08T02:59:02.296Z,52.14
2019-06-08T03:00:02.311Z,52.42
2019-06-08T03:01:02.282Z,52.32
2019-06-08T03:02:02.257Z,52.42
2019-06-08T03:03:02.252Z,52.12
2019-06-08T03:04:02.243Z,52.22
2019-06-08T03:05:02.249Z,52.42
2019-06-08T03:06:02.216Z,52.12
2019-06-08T03:07:02.206Z,52.62
2019-06-08T03:08:02.197Z,52.22
2019-06-08T03:09:02.199Z,52.44
2019-06-08T03:10:02.192Z,52.42
2019-06-08T03:11:02.159Z,52.02
2019-06-08T03:12:02.149Z,52.72
2019-06-08T03:13:02.160Z,52.12
2019-06-08T03:14:02.130Z,52.12
2019-06-08T03:15:02.119Z,52.44
2019-06-08T03:16:02.132Z,52.64
2019-06-08T03:17:02.101Z,52.55
2019-06-08T03:18:02.106Z,52.42
2019-06-08T03:19:20.156Z,52.62
2019-06-08T03:20:03.069Z,52.62
2019-06-08T03:21:02.080Z,52.52
2019-06-08T03:22:02.039Z,52.62
2019-06-08T03:23:02.029Z,52.64
2019-06-08T03:24:02.022Z,52.32
2019-06-08T03:25:02.017Z,52.32
2019-06-08T03:26:02.019Z,52.44
2019-06-08T03:27:01.985Z,52.55
2019-06-08T03:28:01.975Z,52.34
2019-06-08T03:29:01.969Z,52.42
2019-06-08T03:30:15.235Z,52.44
2019-06-08T03:31:02.960Z,52.42
2019-06-08T03:32:01.936Z,52.55
2019-06-08T03:33:01.968Z,52.12
2019-06-08T03:34:01.937Z,52.44
2019-06-08T03:35:01.900Z,52.42
2019-06-08T03:36:01.908Z,52.52
2019-06-08T03:37:01.880Z,52.42
2019-06-08T03:38:01.865Z,52.44
2019-06-08T03:39:01.857Z,52.34
2019-06-08T03:40:01.842Z,52.32
2019-06-08T03:41:01.866Z,52.32
2019-06-08T03:42:01.840Z,52.44
2019-06-08T03:43:01.907Z,52.44
2019-06-08T03:44:01.801Z,52.42
2019-06-08T03:45:01.794Z,52.44
2019-06-08T03:46:01.780Z,52.32
2019-06-08T03:47:01.794Z,52.32
2019-06-08T03:48:01.755Z,52.32
2019-06-08T03:49:01.743Z,52.42
2019-06-08T03:50:01.749Z,52.64
2019-06-08T03:51:01.720Z,52.44
2019-06-08T03:52:01.734Z,52.52
2019-06-08T03:53:01.698Z,52.72
2019-06-08T03:54:01.695Z,52.34
2019-06-08T03:55:01.678Z,52.55
2019-06-08T03:56:01.673Z,52.22
2019-06-08T03:57:01.681Z,52.42
2019-06-08T03:58:01.642Z,52.34
2019-06-08T03:59:01.635Z,52.55
2019-06-08T04:00:01.619Z,52.34
2019-06-08T04:01:01.609Z,52.44
2019-06-08T04:02:01.620Z,52.52
2019-06-08T04:03:01.589Z,52.55
2019-06-08T04:04:01.579Z,52.42
2019-06-08T04:05:01.593Z,52.72
2019-06-08T04:06:01.566Z,52.72
2019-06-08T04:07:01.565Z,52.52
2019-06-08T04:08:01.535Z,52.44
2019-06-08T04:09:01.524Z,52.74
2019-06-08T04:10:01.512Z,52.64
2019-06-08T04:11:01.502Z,52.34
2019-06-08T04:12:01.513Z,52.44
2019-06-08T04:13:01.509Z,52.55
2019-06-08T04:14:01.470Z,52.44
2019-06-08T04:15:01.474Z,52.44
2019-06-08T04:16:01.448Z,52.34
2019-06-08T04:17:01.454Z,52.62
2019-06-08T04:18:01.422Z,52.64
2019-06-08T04:19:01.419Z,52.74
2019-06-08T04:20:10.340Z,52.34
2019-06-08T04:21:02.394Z,52.64
2019-06-08T04:22:01.399Z,52.74
2019-06-08T04:23:01.380Z,52.64
2019-06-08T04:24:01.362Z,52.34
2019-06-08T04:25:01.350Z,52.62
2019-06-08T04:26:01.337Z,52.74
2019-06-08T04:27:01.367Z,52.64
2019-06-08T04:28:01.314Z,52.52
2019-06-08T04:29:01.306Z,52.74
2019-06-08T04:30:01.292Z,52.74
2019-06-08T04:31:01.295Z,52.74
2019-06-08T04:32:01.291Z,52.64
2019-06-08T04:33:01.264Z,52.64
2019-06-08T04:34:01.279Z,52.55
2019-06-08T04:35:01.237Z,52.64
2019-06-08T04:36:01.228Z,52.55
2019-06-08T04:37:01.217Z,52.55
2019-06-08T04:38:01.225Z,52.55
2019-06-08T04:39:01.198Z,52.44
2019-06-08T04:40:01.188Z,52.64
2019-06-08T04:41:01.173Z,52.82
2019-06-08T04:42:01.158Z,52.44
2019-06-08T04:43:01.169Z,52.64
2019-06-08T04:44:01.140Z,52.84
2019-06-08T04:45:01.127Z,52.44
2019-06-08T04:46:01.118Z,52.74
2019-06-08T04:47:01.108Z,52.74
2019-06-08T04:48:01.116Z,52.34
2019-06-08T04:49:01.103Z,52.84
2019-06-08T04:50:20.262Z,52.64
2019-06-08T04:51:02.069Z,52.74
2019-06-08T04:52:01.053Z,52.72
2019-06-08T04:53:01.058Z,52.74
2019-06-08T04:54:01.035Z,52.64
2019-06-08T04:55:01.022Z,52.64
2019-06-08T04:56:01.009Z,52.34
2019-06-08T04:57:00.995Z,52.64
2019-06-08T04:58:01.016Z,52.64
2019-06-08T04:59:00.973Z,52.64
2019-06-08T05:00:11.091Z,52.74
2019-06-08T05:01:01.948Z,52.72
2019-06-08T05:02:00.941Z,52.55
2019-06-08T05:03:00.952Z,52.55
2019-06-08T05:04:00.920Z,52.52
2019-06-08T05:05:00.910Z,52.34
2019-06-08T05:06:00.896Z,52.34
2019-06-08T05:07:00.890Z,52.04
2019-06-08T05:08:00.898Z,52.04
2019-06-08T05:09:00.880Z,52.04
2019-06-08T05:10:00.851Z,52.04
2019-06-08T05:11:00.841Z,52.04
2019-06-08T05:12:00.832Z,52.34
2019-06-08T05:13:00.841Z,52.04
2019-06-08T05:14:00.808Z,52.14
2019-06-08T05:15:00.796Z,52.34
2019-06-08T05:16:00.789Z,52.14
2019-06-08T05:17:00.778Z,52.34
2019-06-08T05:18:00.793Z,52.74
2019-06-08T05:19:00.752Z,51.54
2019-06-08T05:20:00.744Z,51.94
2019-06-08T05:21:00.736Z,52.32
2019-06-08T05:22:00.719Z,52.25
2019-06-08T05:23:00.729Z,52.25
2019-06-08T05:24:00.708Z,51.84
2019-06-08T05:25:00.689Z,52.02
2019-06-08T05:26:00.675Z,52.25
2019-06-08T05:27:00.673Z,52.22
2019-06-08T05:28:00.655Z,52.25
2019-06-08T05:29:00.695Z,52.14
2019-06-08T05:30:08.076Z,52.25
2019-06-08T05:31:01.618Z,52.25
2019-06-08T05:32:00.610Z,52.44
2019-06-08T05:33:00.604Z,51.84
2019-06-08T05:34:00.610Z,52.14
2019-06-08T05:35:00.575Z,52.25
2019-06-08T05:36:00.568Z,52.25
2019-06-08T05:37:00.554Z,52.25
2019-06-08T05:38:00.543Z,52.14
2019-06-08T05:39:00.551Z,52.25
2019-06-08T05:40:00.535Z,52.25
2019-06-08T05:41:00.512Z,52.14
2019-06-08T05:42:00.502Z,51.84
2019-06-08T05:43:00.486Z,52.14
2019-06-08T05:44:00.501Z,52.04
2019-06-08T05:45:00.466Z,52.04
2019-06-08T05:46:00.457Z,51.84
2019-06-08T05:47:00.443Z,52.14
2019-06-08T05:48:00.433Z,52.04
2019-06-08T05:49:00.444Z,51.75
2019-06-08T05:50:00.414Z,51.84
2019-06-08T05:51:04.167Z,51.94
2019-06-08T05:52:00.388Z,51.84
2019-06-08T05:53:00.379Z,51.94
2019-06-08T05:54:02.985Z,52.25
2019-06-08T05:55:00.354Z,51.94
2019-06-08T05:56:00.367Z,52.04
2019-06-08T05:57:00.333Z,51.94
2019-06-08T05:58:00.322Z,51.75
2019-06-08T05:59:00.331Z,52.12
2019-06-08T06:00:00.302Z,51.92
2019-06-08T06:01:00.288Z,51.94
2019-06-08T06:02:00.280Z,52.02
2019-06-08T06:03:00.269Z,51.94
2019-06-08T06:04:00.279Z,51.84
2019-06-08T06:05:00.247Z,51.94
2019-06-08T06:06:00.236Z,51.84
2019-06-08T06:07:00.224Z,52.25
2019-06-08T06:08:00.214Z,52.04
2019-06-08T06:09:00.223Z,52.04
2019-06-08T06:10:00.188Z,52.04
2019-06-08T06:11:00.178Z,52.14
2019-06-08T06:12:00.171Z,52.14
2019-06-08T06:13:00.154Z,52.12
2019-06-08T06:14:00.165Z,52.02
2019-06-08T06:15:00.135Z,52.04
2019-06-08T06:16:00.125Z,52.14
2019-06-08T06:17:00.115Z,52.25
2019-06-08T06:18:00.103Z,51.84
2019-06-08T06:19:00.112Z,51.84
2019-06-08T06:20:00.081Z,52.04
2019-06-08T06:21:10.252Z,51.84
2019-06-08T06:22:01.055Z,51.84
2019-06-08T06:23:00.049Z,51.84
2019-06-08T06:24:00.054Z,52.04
2019-06-08T06:25:00.027Z,52.25
2019-06-08T06:26:00.014Z,51.84
2019-06-08T06:27:00.001Z,52.25
2019-06-08T06:27:59.992Z,52.14
2019-06-08T06:29:00.017Z,51.84
2019-06-08T06:29:59.970Z,52.44
2019-06-08T06:30:59.956Z,51.94
2019-06-08T06:31:59.948Z,51.82
2019-06-08T06:32:59.941Z,52.25
2019-06-08T06:33:59.946Z,51.84
2019-06-08T06:34:59.917Z,52.44
2019-06-08T06:35:59.901Z,52.44
2019-06-08T06:36:59.893Z,51.84
2019-06-08T06:37:59.881Z,52.44
2019-06-08T06:38:59.902Z,52.25
2019-06-08T06:39:59.859Z,52.25
2019-06-08T06:40:59.859Z,52.44
2019-06-08T06:41:59.838Z,52.04
2019-06-08T06:42:59.856Z,52.34
2019-06-08T06:43:59.810Z,52.25
2019-06-08T06:44:59.835Z,52.14
2019-06-08T06:45:59.790Z,52.04
2019-06-08T06:46:59.781Z,52.14
2019-06-08T06:47:59.768Z,52.34
2019-06-08T06:48:59.756Z,52.52
2019-06-08T06:49:59.770Z,52.44
2019-06-08T06:50:59.737Z,52.32
2019-06-08T06:51:59.725Z,52.44
2019-06-08T06:52:59.723Z,52.25
2019-06-08T06:53:59.701Z,52.42
2019-06-08T06:54:59.714Z,52.04
2019-06-08T06:55:59.687Z,51.94
2019-06-08T06:56:59.701Z,51.94
2019-06-08T06:57:59.660Z,52.14
2019-06-08T06:58:59.644Z,52.14
2019-06-08T06:59:59.661Z,51.94
2019-06-08T07:00:59.629Z,51.94
2019-06-08T07:01:59.612Z,51.64
2019-06-08T07:02:59.602Z,51.84
2019-06-08T07:03:59.590Z,51.84
2019-06-08T07:04:59.614Z,51.62
2019-06-08T07:05:59.569Z,51.82
2019-06-08T07:06:59.559Z,51.82
2019-06-08T07:07:59.557Z,51.64
2019-06-08T07:08:59.539Z,51.75
2019-06-08T07:09:59.548Z,51.75
2019-06-08T07:10:59.515Z,51.82
2019-06-08T07:11:59.502Z,51.64
2019-06-08T07:12:59.515Z,51.52
2019-06-08T07:13:59.480Z,51.54
2019-06-08T07:14:59.482Z,51.45
2019-06-08T07:16:16.916Z,51.45
2019-06-08T07:17:00.444Z,51.34
2019-06-08T07:17:59.438Z,51.52
2019-06-08T07:18:59.424Z,51.75
2019-06-08T07:19:59.413Z,51.45
2019-06-08T07:20:59.422Z,51.45
2019-06-08T07:21:59.409Z,51.54
2019-06-08T07:22:59.383Z,51.54
2019-06-08T07:23:59.373Z,51.45
2019-06-08T07:24:59.362Z,51.45
2019-06-08T07:25:59.368Z,51.45
2019-06-08T07:26:59.341Z,51.45
2019-06-08T07:27:59.457Z,51.84
2019-06-08T07:28:59.314Z,51.84
2019-06-08T07:29:59.305Z,51.34
2019-06-08T07:30:59.312Z,51.82
2019-06-08T07:31:59.413Z,51.94
2019-06-08T07:32:59.491Z,51.75
2019-06-08T07:34:00.045Z,51.62
2019-06-08T07:34:59.422Z,51.84
2019-06-08T07:35:59.887Z,51.84
2019-06-08T07:36:59.587Z,51.82
2019-06-08T07:37:59.772Z,51.54
2019-06-08T07:38:59.668Z,51.62
2019-06-08T07:40:00.167Z,51.64
2019-06-08T07:41:01.425Z,51.54
2019-06-08T07:42:00.029Z,51.34
2019-06-08T07:43:00.422Z,51.45
2019-06-08T07:43:59.151Z,51.34
2019-06-08T07:45:00.393Z,51.54
2019-06-08T07:45:59.158Z,51.45
2019-06-08T07:47:00.144Z,51.34
2019-06-08T07:48:00.486Z,51.64
2019-06-08T07:48:59.093Z,51.32
2019-06-08T07:49:59.561Z,51.45
2019-06-08T07:50:59.095Z,51.32
2019-06-08T07:52:09.425Z,51.64
2019-06-08T07:53:00.048Z,51.64
2019-06-08T07:53:59.930Z,51.34
2019-06-08T07:54:59.026Z,51.45
2019-06-08T07:55:59.798Z,51.75
2019-06-08T07:56:59.184Z,51.64
2019-06-08T07:58:00.264Z,51.64
2019-06-08T07:58:59.091Z,51.82
2019-06-08T08:00:00.171Z,51.64
2019-06-08T08:01:07.337Z,51.75
2019-06-08T08:01:59.950Z,51.84
2019-06-08T08:02:58.940Z,51.54
2019-06-08T08:03:58.929Z,51.54
2019-06-08T08:04:58.957Z,51.62
2019-06-08T08:05:58.906Z,51.82
2019-06-08T08:06:58.937Z,51.25
2019-06-08T08:07:59.085Z,51.84
2019-06-08T08:08:58.977Z,51.62
2019-06-08T08:09:58.931Z,51.84
2019-06-08T08:10:58.852Z,51.84
2019-06-08T08:11:59.622Z,51.84
2019-06-08T08:12:58.991Z,51.64
2019-06-08T08:13:59.166Z,51.15
2019-06-08T08:14:59.765Z,51.75
2019-06-08T08:16:00.634Z,51.84
2019-06-08T08:16:59.136Z,51.72
2019-06-08T08:17:59.636Z,51.75
2019-06-08T08:18:59.753Z,51.04
2019-06-08T08:19:59.390Z,51.15
2019-06-08T08:21:07.403Z,51.64
2019-06-08T08:22:03.176Z,51.45
2019-06-08T08:23:05.535Z,51.25
2019-06-08T08:24:01.484Z,51.25
2019-06-08T08:25:03.260Z,51.25
2019-06-08T08:26:01.731Z,51.25
2019-06-08T08:27:01.995Z,51.34
2019-06-08T08:28:01.006Z,51.34
2019-06-08T08:29:01.302Z,51.34
2019-06-08T08:30:01.121Z,51.25
2019-06-08T08:31:01.601Z,51.25
2019-06-08T08:32:00.673Z,51.34
2019-06-08T08:33:01.758Z,51.32
2019-06-08T08:34:05.364Z,51.45
2019-06-08T08:35:02.737Z,51.45
2019-06-08T08:36:00.618Z,51.34
2019-06-08T08:37:04.022Z,51.64
2019-06-08T08:38:03.898Z,51.84
2019-06-08T08:39:01.038Z,51.45
2019-06-08T08:40:00.264Z,51.94
2019-06-08T08:41:06.289Z,51.34
2019-06-08T08:42:04.527Z,51.94
2019-06-08T08:43:01.475Z,51.82
2019-06-08T08:44:04.166Z,51.64
2019-06-08T08:45:04.740Z,51.64
2019-06-08T08:46:01.843Z,51.64
2019-06-08T08:47:00.564Z,51.25
2019-06-08T08:48:14.402Z,51.25
2019-06-08T08:49:08.425Z,51.52
2019-06-08T08:50:01.899Z,51.84
2019-06-08T08:51:00.750Z,51.84
2019-06-08T08:52:00.055Z,51.54
2019-06-08T08:53:00.391Z,51.54
2019-06-08T08:54:03.464Z,51.32
2019-06-08T08:55:00.935Z,51.42
2019-06-08T08:56:01.239Z,51.22
2019-06-08T08:57:04.463Z,51.34
2019-06-08T08:58:00.892Z,51.32
2019-06-08T08:59:00.913Z,51.72
2019-06-08T09:00:03.508Z,51.32
2019-06-08T09:01:01.619Z,51.22
2019-06-08T09:02:01.044Z,51.45
2019-06-08T09:03:13.182Z,51.32
2019-06-08T09:04:03.289Z,51.25
2019-06-08T09:05:01.981Z,51.34
2019-06-08T09:06:00.590Z,51.64
2019-06-08T09:07:05.671Z,51.45
2019-06-08T09:08:02.066Z,51.62
2019-06-08T09:09:00.849Z,51.25
2019-06-08T09:10:00.588Z,51.62
2019-06-08T09:11:01.739Z,51.42
2019-06-08T09:12:02.231Z,51.42
2019-06-08T09:13:02.954Z,51.32
2019-06-08T09:14:05.203Z,51.34
2019-06-08T09:15:01.763Z,51.32
2019-06-08T09:16:00.765Z,51.15
2019-06-08T09:17:01.522Z,51.25
2019-06-08T09:18:00.957Z,51.34
2019-06-08T09:19:01.012Z,51.45
2019-06-08T09:20:00.128Z,51.45
2019-06-08T09:21:00.344Z,51.45
2019-06-08T09:22:00.376Z,51.25
2019-06-08T09:23:06.702Z,51.25
2019-06-08T09:24:02.598Z,51.34
2019-06-08T09:25:01.155Z,51.34
2019-06-08T09:26:05.994Z,51.25
2019-06-08T09:27:00.946Z,51.34
2019-06-08T09:28:01.254Z,51.34
2019-06-08T09:29:01.086Z,51.34
2019-06-08T09:30:00.716Z,51.34
2019-06-08T09:31:00.343Z,51.25
2019-06-08T09:31:58.982Z,51.64
2019-06-08T09:33:00.584Z,51.32
2019-06-08T09:34:07.515Z,51.64
2019-06-08T09:35:02.346Z,51.54
2019-06-08T09:36:00.862Z,51.04
2019-06-08T09:37:00.163Z,51.32
2019-06-08T09:38:01.139Z,51.32
2019-06-08T09:39:02.695Z,50.82
2019-06-08T09:39:58.949Z,51.32
2019-06-08T09:41:01.233Z,51.22
2019-06-08T09:42:01.893Z,50.82
2019-06-08T09:43:05.398Z,51.34
2019-06-08T09:44:03.171Z,50.95
2019-06-08T09:45:01.961Z,50.95
2019-06-08T09:46:01.593Z,51.32
2019-06-08T09:47:00.975Z,50.84
2019-06-08T09:48:01.813Z,50.84
2019-06-08T09:49:04.807Z,51.12
2019-06-08T09:50:01.855Z,50.72
2019-06-08T09:51:00.423Z,51.02
2019-06-08T09:52:01.444Z,51.15
2019-06-08T09:53:18.239Z,51.02
2019-06-08T09:54:02.044Z,51.04
2019-06-08T09:55:02.298Z,50.95
2019-06-08T09:56:02.311Z,50.92
2019-06-08T09:57:02.070Z,51.02
2019-06-08T09:58:01.871Z,51.25
2019-06-08T09:59:02.758Z,51.12
2019-06-08T10:00:01.091Z,51.04
2019-06-08T10:01:01.999Z,51.12
2019-06-08T10:02:05.162Z,51.12
2019-06-08T10:03:02.186Z,50.95
2019-06-08T10:04:00.807Z,51.02
2019-06-08T10:05:00.542Z,51.22
2019-06-08T10:06:01.528Z,50.52
2019-06-08T10:07:00.571Z,50.52
2019-06-08T10:08:00.554Z,50.74
2019-06-08T10:08:58.528Z,51.04
2019-06-08T10:10:00.355Z,50.74
2019-06-08T10:11:01.406Z,51.32
2019-06-08T10:11:59.561Z,50.92
2019-06-08T10:13:01.305Z,51.02
2019-06-08T10:14:02.656Z,50.72
2019-06-08T10:14:58.784Z,51.04
2019-06-08T10:16:01.913Z,51.04
2019-06-08T10:17:00.770Z,50.72
2019-06-08T10:17:58.854Z,51.02
2019-06-08T10:19:00.402Z,50.92
2019-06-08T10:20:00.648Z,50.72
2019-06-08T10:20:59.428Z,50.92
2019-06-08T10:21:58.771Z,51.32
2019-06-08T10:23:01.217Z,50.65
2019-06-08T10:24:01.009Z,51.02
2019-06-08T10:25:02.143Z,50.52
2019-06-08T10:26:01.316Z,50.42
2019-06-08T10:26:57.375Z,50.72
2019-06-08T10:28:02.829Z,50.72
2019-06-08T10:29:01.189Z,50.82
2019-06-08T10:30:00.848Z,50.45
2019-06-08T10:30:59.647Z,50.42
2019-06-08T10:31:57.295Z,50.62
2019-06-08T10:33:00.449Z,50.52
2019-06-08T10:34:00.601Z,50.72
2019-06-08T10:35:00.345Z,50.45
2019-06-08T10:36:00.672Z,50.72
2019-06-08T10:36:58.897Z,50.82
2019-06-08T10:38:02.809Z,50.52
2019-06-08T10:39:02.726Z,50.62
2019-06-08T10:40:00.653Z,50.62
2019-06-08T10:41:04.754Z,50.62
2019-06-08T10:42:01.099Z,50.54
2019-06-08T10:42:59.852Z,50.62
2019-06-08T10:43:57.281Z,50.72
2019-06-08T10:45:02.701Z,50.62
2019-06-08T10:46:04.929Z,50.72
2019-06-08T10:47:01.354Z,50.42
2019-06-08T10:47:59.407Z,50.74
2019-06-08T10:48:57.413Z,50.32
2019-06-08T10:50:01.670Z,50.72
2019-06-08T10:51:00.414Z,50.92
2019-06-08T10:52:01.154Z,50.72
2019-06-08T10:53:02.141Z,50.62
2019-06-08T10:53:58.056Z,50.74
2019-06-08T10:54:59.786Z,50.74
2019-06-08T10:55:58.225Z,50.42
2019-06-08T10:56:59.769Z,50.74
2019-06-08T10:57:58.141Z,50.62
2019-06-08T10:58:58.051Z,50.72
2019-06-08T10:59:57.919Z,50.82
2019-06-08T11:00:59.694Z,50.92
2019-06-08T11:02:00.973Z,50.95
2019-06-08T11:03:01.337Z,50.92
2019-06-08T11:03:58.477Z,50.92
2019-06-08T11:04:58.802Z,50.42
2019-06-08T11:05:59.172Z,50.82
2019-06-08T11:07:01.031Z,50.82
2019-06-08T11:07:59.306Z,50.92
2019-06-08T11:08:58.550Z,51.52
2019-06-08T11:09:58.674Z,51.02
2019-06-08T11:10:57.898Z,50.92
2019-06-08T11:11:58.408Z,51.52
2019-06-08T11:12:58.247Z,50.92
2019-06-08T11:13:58.460Z,51.52
2019-06-08T11:14:58.399Z,51.42
2019-06-08T11:15:58.628Z,50.42
2019-06-08T11:16:56.806Z,50.62
2019-06-08T11:18:00.446Z,51.12
2019-06-08T11:18:59.106Z,50.72
2019-06-08T11:19:59.441Z,51.12
2019-06-08T11:20:59.499Z,51.12
2019-06-08T11:21:58.040Z,50.52
2019-06-08T11:22:58.359Z,50.32
2019-06-08T11:24:07.539Z,50.42
2019-06-08T11:24:58.853Z,50.42
2019-06-08T11:25:59.484Z,50.35
2019-06-08T11:26:59.617Z,50.62
2019-06-08T11:27:58.664Z,50.42
2019-06-08T11:28:58.673Z,50.42
2019-06-08T11:29:57.576Z,50.32
2019-06-08T11:30:56.692Z,50.62
2019-06-08T11:31:58.656Z,50.32
2019-06-08T11:32:57.691Z,50.32
2019-06-08T11:33:58.908Z,50.82
2019-06-08T11:34:56.596Z,50.62
2019-06-08T11:35:58.141Z,50.52
2019-06-08T11:36:59.632Z,50.62
2019-06-08T11:37:58.474Z,50.82
2019-06-08T11:38:58.802Z,50.52
2019-06-08T11:39:57.693Z,50.62
2019-06-08T11:40:57.520Z,51.12
2019-06-08T11:41:58.656Z,50.82
2019-06-08T11:42:58.528Z,50.92
2019-06-08T11:43:59.608Z,51.12
2019-06-08T11:44:58.510Z,50.32
2019-06-08T11:45:58.385Z,50.82
2019-06-08T11:46:57.521Z,50.22
2019-06-08T11:47:58.393Z,50.52
2019-06-08T11:48:57.690Z,50.52
2019-06-08T11:49:57.652Z,50.82
2019-06-08T11:50:58.370Z,50.92
2019-06-08T11:51:58.344Z,51.02
2019-06-08T11:53:00.090Z,50.82
2019-06-08T11:53:56.388Z,50.92
2019-06-08T11:54:57.343Z,51.02
2019-06-08T11:55:58.551Z,50.72
2019-06-08T11:56:57.602Z,50.72
2019-06-08T11:57:58.508Z,50.72
2019-06-08T11:58:57.949Z,50.72
2019-06-08T11:59:58.343Z,51.02
2019-06-08T12:01:00.833Z,50.92
2019-06-08T12:01:58.572Z,51.02
2019-06-08T12:02:58.110Z,51.12
2019-06-08T12:03:57.942Z,50.92
2019-06-08T12:04:57.258Z,50.92
2019-06-08T12:05:58.279Z,50.72
2019-06-08T12:06:58.309Z,51.02
2019-06-08T12:07:57.834Z,51.02
2019-06-08T12:08:57.335Z,51.12
2019-06-08T12:09:58.345Z,51.02
2019-06-08T12:11:01.187Z,50.92
2019-06-08T12:11:58.135Z,50.92
2019-06-08T12:12:57.418Z,51.02
2019-06-08T12:13:58.347Z,51.12
2019-06-08T12:14:58.210Z,51.02
2019-06-08T12:15:58.748Z,51.02
2019-06-08T12:16:58.145Z,51.04
2019-06-08T12:17:58.657Z,51.02
2019-06-08T12:18:58.430Z,50.42
2019-06-08T12:19:57.701Z,50.72
2019-06-08T12:20:58.332Z,51.02
2019-06-08T12:21:58.008Z,51.22
2019-06-08T12:22:56.097Z,50.92
2019-06-08T12:23:56.054Z,51.02
2019-06-08T12:24:56.050Z,50.52
2019-06-08T12:25:56.031Z,51.02
2019-06-08T12:27:07.503Z,51.02
2019-06-08T12:27:58.552Z,50.92
2019-06-08T12:28:57.965Z,51.02
2019-06-08T12:29:58.794Z,50.92
2019-06-08T12:30:55.975Z,50.32
2019-06-08T12:31:58.380Z,51.02
2019-06-08T12:32:58.038Z,50.32
2019-06-08T12:33:58.616Z,50.22
2019-06-08T12:34:59.783Z,51.02
2019-06-08T12:35:57.912Z,50.32
2019-06-08T12:36:58.173Z,50.32
2019-06-08T12:37:58.119Z,51.02
2019-06-08T12:38:55.888Z,51.02
2019-06-08T12:39:57.974Z,50.32
2019-06-08T12:40:58.717Z,51.02
2019-06-08T12:41:58.203Z,51.02
2019-06-08T12:42:59.465Z,50.92
2019-06-08T12:43:57.941Z,50.12
2019-06-08T12:44:55.821Z,50.22
2019-06-08T12:45:57.899Z,50.32
2019-06-08T12:46:58.393Z,50.92
2019-06-08T12:47:55.790Z,50.32
2019-06-08T12:48:58.075Z,50.32
2019-06-08T12:49:58.278Z,50.42
2019-06-08T12:50:55.755Z,50.22
2019-06-08T12:51:58.119Z,50.32